createdAt,value
2017-01-21T00:00:22.266Z,-5.62
2017-01-21T00:01:22.278Z,-5.63
2017-01-21T00:02:22.223Z,-5.62
2017-01-21T00:03:22.206Z,-5.68
2017-01-21T00:04:22.187Z,-5.74
2017-01-21T00:05:22.167Z,-5.7
2017-01-21T00:06:22.176Z,-5.73
2017-01-21T00:07:22.125Z,-5.74
2017-01-21T00:08:22.103Z,-5.77
2017-01-21T00:09:22.082Z,-5.76
2017-01-21T00:10:22.069Z,-5.65
2017-01-21T00:11:22.041Z,-5.66
2017-01-21T00:12:22.047Z,-5.62
2017-01-21T00:13:22.001Z,-5.51
2017-01-21T00:14:21.981Z,-5.58
2017-01-21T00:15:21.959Z,-5.5
2017-01-21T00:16:21.937Z,-5.47
2017-01-21T00:17:21.919Z,-5.58
2017-01-21T00:18:21.899Z,-5.56
2017-01-21T00:19:21.878Z,-5.51
2017-01-21T00:20:21.855Z,-5.51
2017-01-21T00:21:21.837Z,-5.45
2017-01-21T00:22:21.818Z,-5.42
2017-01-21T00:23:21.796Z,-5.44
2017-01-21T00:24:21.782Z,-5.5
2017-01-21T00:25:21.753Z,-5.51
2017-01-21T00:26:21.738Z,-5.55
2017-01-21T00:27:21.720Z,-5.47
2017-01-21T00:28:21.695Z,-5.55
2017-01-21T00:29:21.694Z,-5.63
2017-01-21T00:30:21.651Z,-5.7
2017-01-21T00:31:21.634Z,-5.81
2017-01-21T00:32:21.612Z,-5.74
2017-01-21T00:33:21.593Z,-5.79
2017-01-21T00:34:21.571Z,-5.77
2017-01-21T00:35:21.551Z,-5.81
2017-01-21T00:36:21.534Z,-5.8
2017-01-21T00:37:21.508Z,-5.87
2017-01-21T00:38:21.491Z,-5.76
2017-01-21T00:39:21.471Z,-5.94
2017-01-21T00:40:21.449Z,-5.98
2017-01-21T00:41:21.427Z,-5.83
2017-01-21T00:42:21.410Z,-5.89
2017-01-21T00:43:21.391Z,-5.91
2017-01-21T00:44:21.368Z,-5.86
2017-01-21T00:45:21.343Z,-5.89
2017-01-21T00:46:21.323Z,-5.91
2017-01-21T00:47:21.308Z,-5.89
2017-01-21T00:48:21.283Z,-5.94
2017-01-21T00:49:21.267Z,-5.91
2017-01-21T00:50:21.243Z,-5.89
2017-01-21T00:51:21.224Z,-5.98
2017-01-21T00:52:21.202Z,-5.84
2017-01-21T00:53:21.181Z,-5.89
2017-01-21T00:54:21.158Z,-5.94
2017-01-21T00:55:21.141Z,-5.86
2017-01-21T00:56:21.122Z,-5.77
2017-01-21T00:57:21.100Z,-5.73
2017-01-21T00:58:21.079Z,-5.66
2017-01-21T00:59:21.054Z,-5.66
2017-01-21T01:00:21.035Z,-5.66
2017-01-21T01:01:21.023Z,-5.7
2017-01-21T01:02:20.994Z,-5.7
2017-01-21T01:03:20.972Z,-5.76
2017-01-21T01:04:20.954Z,-5.8
2017-01-21T01:05:20.932Z,-5.89
2017-01-21T01:06:20.915Z,-5.94
2017-01-21T01:07:20.892Z,-5.91
2017-01-21T01:08:20.872Z,-5.94
2017-01-21T01:09:20.853Z,-5.95
2017-01-21T01:10:20.832Z,-6.02
2017-01-21T01:11:20.810Z,-5.92
2017-01-21T01:12:21.110Z,-5.81
2017-01-21T01:13:20.799Z,-5.73
2017-01-21T01:14:20.748Z,-5.7
2017-01-21T01:15:20.757Z,-5.6
2017-01-21T01:16:20.707Z,-5.51
2017-01-21T01:17:20.685Z,-5.5
2017-01-21T01:18:20.816Z,-5.5
2017-01-21T01:19:20.648Z,-5.41
2017-01-21T01:20:20.659Z,-5.4
2017-01-21T01:21:20.607Z,-5.37
2017-01-21T01:22:20.587Z,-5.42
2017-01-21T01:23:20.726Z,-5.51
2017-01-21T01:24:20.544Z,-5.47
2017-01-21T01:25:20.522Z,-5.41
2017-01-21T01:26:20.623Z,-5.4
2017-01-21T01:27:20.483Z,-5.42
2017-01-21T01:28:20.461Z,-5.48
2017-01-21T01:29:20.927Z,-5.42
2017-01-21T01:30:20.424Z,-5.42
2017-01-21T01:31:20.402Z,-5.37
2017-01-21T01:32:20.774Z,-5.48
2017-01-21T01:33:20.366Z,-5.48
2017-01-21T01:34:20.338Z,-5.51
2017-01-21T01:35:20.849Z,-5.5
2017-01-21T01:36:20.300Z,-5.47
2017-01-21T01:37:20.281Z,-5.56
2017-01-21T01:38:20.258Z,-5.56
2017-01-21T01:39:20.963Z,-5.51
2017-01-21T01:40:20.219Z,-5.51
2017-01-21T01:41:20.199Z,-5.5
2017-01-21T01:42:20.515Z,-5.55
2017-01-21T01:43:20.157Z,-5.52
2017-01-21T01:44:20.141Z,-5.58
2017-01-21T01:45:20.126Z,-5.55
2017-01-21T01:46:20.097Z,-5.55
2017-01-21T01:47:20.273Z,-5.55
2017-01-21T01:48:20.057Z,-5.47
2017-01-21T01:49:20.032Z,-5.5
2017-01-21T01:50:21.094Z,-5.52
2017-01-21T01:51:19.992Z,-5.6
2017-01-21T01:52:19.977Z,-5.55
2017-01-21T01:53:20.450Z,-5.59
2017-01-21T01:54:19.931Z,-5.47
2017-01-21T01:55:19.914Z,-5.58
2017-01-21T01:56:20.486Z,-5.5
2017-01-21T01:57:19.874Z,-5.47
2017-01-21T01:58:19.851Z,-5.59
2017-01-21T01:59:20.051Z,-5.55
2017-01-21T02:00:19.810Z,-5.51
2017-01-21T02:01:19.792Z,-5.44
2017-01-21T02:02:20.382Z,-5.51
2017-01-21T02:03:19.748Z,-5.52
2017-01-21T02:04:19.728Z,-5.41
2017-01-21T02:05:20.426Z,-5.4
2017-01-21T02:06:19.689Z,-5.45
2017-01-21T02:07:19.675Z,-5.56
2017-01-21T02:08:19.722Z,-5.48
2017-01-21T02:09:19.624Z,-5.51
2017-01-21T02:10:19.606Z,-5.45
2017-01-21T02:11:19.585Z,-5.45
2017-01-21T02:12:19.569Z,-5.52
2017-01-21T02:13:19.546Z,-5.56
2017-01-21T02:14:19.527Z,-5.58
2017-01-21T02:15:19.502Z,-5.63
2017-01-21T02:16:19.484Z,-5.62
2017-01-21T02:17:19.466Z,-5.58
2017-01-21T02:18:19.445Z,-5.55
2017-01-21T02:19:19.424Z,-5.59
2017-01-21T02:20:19.404Z,-5.62
2017-01-21T02:21:19.384Z,-5.66
2017-01-21T02:22:19.362Z,-5.62
2017-01-21T02:23:19.412Z,-5.68
2017-01-21T02:24:19.321Z,-5.7
2017-01-21T02:25:19.301Z,-5.63
2017-01-21T02:26:19.281Z,-5.63
2017-01-21T02:27:19.259Z,-5.68
2017-01-21T02:28:19.240Z,-5.69
2017-01-21T02:29:19.221Z,-5.73
2017-01-21T02:30:19.203Z,-5.77
2017-01-21T02:31:19.185Z,-5.74
2017-01-21T02:32:19.158Z,-5.81
2017-01-21T02:33:19.139Z,-5.79
2017-01-21T02:34:19.117Z,-5.8
2017-01-21T02:35:19.100Z,-5.86
2017-01-21T02:36:19.112Z,-5.86
2017-01-21T02:37:19.057Z,-5.87
2017-01-21T02:38:19.036Z,-5.8
2017-01-21T02:39:19.015Z,-5.81
2017-01-21T02:40:18.997Z,-5.79
2017-01-21T02:41:18.978Z,-5.86
2017-01-21T02:42:19.021Z,-5.74
2017-01-21T02:43:18.932Z,-5.7
2017-01-21T02:44:18.913Z,-5.6
2017-01-21T02:45:18.893Z,-5.51
2017-01-21T02:46:18.876Z,-5.5
2017-01-21T02:47:18.852Z,-5.51
2017-01-21T02:48:18.849Z,-5.35
2017-01-21T02:49:18.814Z,-5.41
2017-01-21T02:50:18.791Z,-5.4
2017-01-21T02:51:18.768Z,-5.37
2017-01-21T02:52:18.875Z,-5.4
2017-01-21T02:53:18.727Z,-5.52
2017-01-21T02:54:19.108Z,-5.45
2017-01-21T02:55:18.687Z,-5.5
2017-01-21T02:56:18.689Z,-5.62
2017-01-21T02:57:18.648Z,-5.56
2017-01-21T02:58:18.627Z,-5.65
2017-01-21T02:59:18.602Z,-5.77
2017-01-21T03:00:18.583Z,-5.81
2017-01-21T03:01:18.563Z,-5.8
2017-01-21T03:02:18.545Z,-5.92
2017-01-21T03:03:18.522Z,-5.98
2017-01-21T03:04:18.526Z,-5.87
2017-01-21T03:05:18.482Z,-5.98
2017-01-21T03:06:18.460Z,-5.95
2017-01-21T03:07:18.610Z,-5.95
2017-01-21T03:08:18.427Z,-5.97
2017-01-21T03:09:18.798Z,-5.91
2017-01-21T03:10:18.497Z,-5.99
2017-01-21T03:11:18.361Z,-6.18
2017-01-21T03:12:18.339Z,-6.12
2017-01-21T03:13:18.384Z,-6.12
2017-01-21T03:14:18.296Z,-6.19
2017-01-21T03:15:18.282Z,-6.16
2017-01-21T03:16:18.258Z,-6.23
2017-01-21T03:17:18.412Z,-6.22
2017-01-21T03:18:18.217Z,-6.19
2017-01-21T03:19:18.194Z,-6.18
2017-01-21T03:20:18.390Z,-6.18
2017-01-21T03:21:18.159Z,-6.13
2017-01-21T03:22:18.132Z,-6.16
2017-01-21T03:23:18.273Z,-6.25
2017-01-21T03:24:18.094Z,-6.22
2017-01-21T03:25:18.073Z,-6.3
2017-01-21T03:26:18.213Z,-6.25
2017-01-21T03:27:18.035Z,-6.41
2017-01-21T03:28:18.009Z,-6.22
2017-01-21T03:29:17.992Z,-6.31
2017-01-21T03:30:17.967Z,-6.4
2017-01-21T03:31:18.074Z,-6.31
2017-01-21T03:32:17.930Z,-6.36
2017-01-21T03:33:17.907Z,-6.43
2017-01-21T03:34:17.957Z,-6.37
2017-01-21T03:35:17.868Z,-6.38
2017-01-21T03:36:17.849Z,-6.37
2017-01-21T03:37:17.897Z,-6.38
2017-01-21T03:38:17.801Z,-6.41
2017-01-21T03:39:17.793Z,-6.3
2017-01-21T03:40:17.764Z,-6.23
2017-01-21T03:41:17.743Z,-6.3
2017-01-21T03:42:17.724Z,-6.19
2017-01-21T03:43:17.701Z,-6.22
2017-01-21T03:44:17.681Z,-6.25
2017-01-21T03:45:17.659Z,-6.22
2017-01-21T03:46:17.640Z,-6.33
2017-01-21T03:47:17.619Z,-6.36
2017-01-21T03:48:17.612Z,-6.31
2017-01-21T03:49:17.574Z,-6.36
2017-01-21T03:50:17.554Z,-6.36
2017-01-21T03:51:17.533Z,-6.37
2017-01-21T03:52:17.514Z,-6.37
2017-01-21T03:53:17.499Z,-6.58
2017-01-21T03:54:17.471Z,-6.48
2017-01-21T03:55:17.448Z,-6.6
2017-01-21T03:56:17.432Z,-6.54
2017-01-21T03:57:17.412Z,-6.54
2017-01-21T03:58:17.391Z,-6.6
2017-01-21T03:59:17.367Z,-6.6
2017-01-21T04:00:17.347Z,-6.54
2017-01-21T04:01:17.325Z,-6.54
2017-01-21T04:02:17.305Z,-6.6
2017-01-21T04:03:17.287Z,-6.49
2017-01-21T04:04:17.265Z,-6.46
2017-01-21T04:05:17.243Z,-6.43
2017-01-21T04:06:17.226Z,-6.48
2017-01-21T04:07:17.204Z,-6.46
2017-01-21T04:08:17.181Z,-6.63
2017-01-21T04:09:17.161Z,-6.6
2017-01-21T04:10:17.140Z,-6.59
2017-01-21T04:11:17.116Z,-6.65
2017-01-21T04:12:17.097Z,-6.68
2017-01-21T04:13:17.083Z,-6.68
2017-01-21T04:14:17.056Z,-6.73
2017-01-21T04:15:17.045Z,-6.67
2017-01-21T04:16:17.014Z,-6.67
2017-01-21T04:17:16.993Z,-6.7
2017-01-21T04:18:16.974Z,-6.65
2017-01-21T04:19:16.954Z,-6.68
2017-01-21T04:20:16.931Z,-6.63
2017-01-21T04:21:16.910Z,-6.65
2017-01-21T04:22:16.889Z,-6.67
2017-01-21T04:23:16.872Z,-6.71
2017-01-21T04:24:16.848Z,-6.63
2017-01-21T04:25:16.828Z,-6.65
2017-01-21T04:26:16.809Z,-6.67
2017-01-21T04:27:16.790Z,-6.68
2017-01-21T04:28:16.764Z,-6.7
2017-01-21T04:29:16.752Z,-6.7
2017-01-21T04:30:16.730Z,-6.74
2017-01-21T04:31:16.701Z,-6.76
2017-01-21T04:32:16.679Z,-6.81
2017-01-21T04:33:16.663Z,-6.8
2017-01-21T04:34:16.638Z,-6.91
2017-01-21T04:35:16.618Z,-6.89
2017-01-21T04:36:16.603Z,-6.97
2017-01-21T04:37:16.575Z,-6.92
2017-01-21T04:38:16.556Z,-6.89
2017-01-21T04:39:16.534Z,-6.84
2017-01-21T04:40:16.530Z,-7.06
2017-01-21T04:41:16.493Z,-6.95
2017-01-21T04:42:16.474Z,-7.05
2017-01-21T04:43:16.449Z,-7.01
2017-01-21T04:44:16.431Z,-6.91
2017-01-21T04:45:16.406Z,-6.98
2017-01-21T04:46:16.386Z,-6.99
2017-01-21T04:47:16.364Z,-6.88
2017-01-21T04:48:16.346Z,-6.89
2017-01-21T04:49:16.323Z,-6.98
2017-01-21T04:50:16.306Z,-6.92
2017-01-21T04:51:16.282Z,-6.97
2017-01-21T04:52:16.273Z,-6.92
2017-01-21T04:53:16.244Z,-6.89
2017-01-21T04:54:16.219Z,-7.05
2017-01-21T04:55:16.200Z,-7.05
2017-01-21T04:56:16.177Z,-7.01
2017-01-21T04:57:16.157Z,-7.1
2017-01-21T04:58:16.139Z,-6.99
2017-01-21T04:59:16.112Z,-7.07
2017-01-21T05:00:16.145Z,-7.16
2017-01-21T05:01:16.069Z,-7.15
2017-01-21T05:02:16.049Z,-7.2
2017-01-21T05:03:16.029Z,-7.22
2017-01-21T05:04:16.008Z,-7.3
2017-01-21T05:05:15.984Z,-7.27
2017-01-21T05:06:15.965Z,-7.26
2017-01-21T05:07:15.942Z,-7.31
2017-01-21T05:08:15.925Z,-7.31
2017-01-21T05:09:15.902Z,-7.27
2017-01-21T05:10:15.881Z,-7.3
2017-01-21T05:11:15.859Z,-7.3
2017-01-21T05:12:15.838Z,-7.33
2017-01-21T05:13:15.818Z,-7.3
2017-01-21T05:14:15.795Z,-7.27
2017-01-21T05:15:15.777Z,-7.28
2017-01-21T05:16:15.755Z,-7.19
2017-01-21T05:17:15.734Z,-7.12
2017-01-21T05:18:15.709Z,-7.22
2017-01-21T05:19:15.691Z,-7.19
2017-01-21T05:20:15.668Z,-7.17
2017-01-21T05:21:15.653Z,-7.19
2017-01-21T05:22:15.626Z,-7.17
2017-01-21T05:23:15.608Z,-7.2
2017-01-21T05:24:15.584Z,-7.13
2017-01-21T05:25:15.562Z,-7.12
2017-01-21T05:26:15.540Z,-7.13
2017-01-21T05:27:15.520Z,-7.06
2017-01-21T05:28:15.500Z,-7.02
2017-01-21T05:29:15.479Z,-6.99
2017-01-21T05:30:15.455Z,-6.98
2017-01-21T05:31:15.438Z,-6.98
2017-01-21T05:32:15.414Z,-7.09
2017-01-21T05:33:15.391Z,-6.99
2017-01-21T05:34:15.371Z,-7.09
2017-01-21T05:35:15.351Z,-6.98
2017-01-21T05:36:15.326Z,-6.92
2017-01-21T05:37:15.307Z,-6.95
2017-01-21T05:38:15.283Z,-7.07
2017-01-21T05:39:15.270Z,-7.01
2017-01-21T05:40:15.243Z,-7.12
2017-01-21T05:41:15.223Z,-7.07
2017-01-21T05:42:15.205Z,-7.01
2017-01-21T05:43:15.181Z,-7.13
2017-01-21T05:44:15.161Z,-7.19
2017-01-21T05:45:15.139Z,-7.1
2017-01-21T05:46:15.114Z,-7.13
2017-01-21T05:47:15.097Z,-7.15
2017-01-21T05:48:15.073Z,-7.1
2017-01-21T05:49:15.052Z,-7.15
2017-01-21T05:50:15.030Z,-7.2
2017-01-21T05:51:15.009Z,-7.19
2017-01-21T05:52:14.988Z,-7.3
2017-01-21T05:53:14.966Z,-7.33
2017-01-21T05:54:14.946Z,-7.27
2017-01-21T05:55:14.925Z,-7.27
2017-01-21T05:56:14.904Z,-7.4
2017-01-21T05:57:14.880Z,-7.45
2017-01-21T05:58:14.863Z,-7.48
2017-01-21T05:59:14.843Z,-7.38
2017-01-21T06:00:14.814Z,-7.45
2017-01-21T06:01:14.795Z,-7.45
2017-01-21T06:02:14.773Z,-7.44
2017-01-21T06:03:14.753Z,-7.45
2017-01-21T06:04:14.730Z,-7.45
2017-01-21T06:05:14.710Z,-7.44
2017-01-21T06:06:14.684Z,-7.38
2017-01-21T06:07:14.670Z,-7.36
2017-01-21T06:08:14.646Z,-7.4
2017-01-21T06:09:14.630Z,-7.47
2017-01-21T06:10:14.602Z,-7.45
2017-01-21T06:11:14.583Z,-7.48
2017-01-21T06:12:14.559Z,-7.42
2017-01-21T06:13:14.540Z,-7.48
2017-01-21T06:14:14.518Z,-7.34
2017-01-21T06:15:14.495Z,-7.36
2017-01-21T06:16:14.473Z,-7.42
2017-01-21T06:17:14.454Z,-7.26
2017-01-21T06:18:14.433Z,-7.47
2017-01-21T06:19:14.412Z,-7.31
2017-01-21T06:20:14.386Z,-7.28
2017-01-21T06:21:14.377Z,-7.34
2017-01-21T06:22:14.344Z,-7.26
2017-01-21T06:23:14.326Z,-7.16
2017-01-21T06:24:14.305Z,-7.24
2017-01-21T06:25:14.282Z,-7.15
2017-01-21T06:26:14.330Z,-7.13
2017-01-21T06:27:14.241Z,-7.09
2017-01-21T06:28:14.216Z,-7.05
2017-01-21T06:29:14.196Z,-6.94
2017-01-21T06:30:14.175Z,-6.95
2017-01-21T06:31:14.152Z,-7.01
2017-01-21T06:32:14.135Z,-6.99
2017-01-21T06:33:14.113Z,-6.89
2017-01-21T06:34:14.086Z,-6.88
2017-01-21T06:35:14.067Z,-6.94
2017-01-21T06:36:14.048Z,-6.97
2017-01-21T06:37:14.024Z,-7.05
2017-01-21T06:38:14.002Z,-7.1
2017-01-21T06:39:13.981Z,-7.07
2017-01-21T06:40:13.960Z,-7.1
2017-01-21T06:41:13.943Z,-7.16
2017-01-21T06:42:13.916Z,-7.09
2017-01-21T06:43:13.896Z,-7.06
2017-01-21T06:44:13.875Z,-7.07
2017-01-21T06:45:13.857Z,-7.1
2017-01-21T06:46:13.832Z,-7.06
2017-01-21T06:47:13.810Z,-7.12
2017-01-21T06:48:13.793Z,-7.12
2017-01-21T06:49:13.769Z,-7.12
2017-01-21T06:50:13.749Z,-7.09
2017-01-21T06:51:13.732Z,-7.06
2017-01-21T06:52:13.703Z,-7.1
2017-01-21T06:53:13.711Z,-7.06
2017-01-21T06:54:13.659Z,-7.09
2017-01-21T06:55:13.639Z,-6.92
2017-01-21T06:56:13.620Z,-6.91
2017-01-21T06:57:13.596Z,-6.92
2017-01-21T06:58:13.575Z,-6.87
2017-01-21T06:59:13.557Z,-6.83
2017-01-21T07:00:13.929Z,-6.95
2017-01-21T07:01:13.507Z,-6.92
2017-01-21T07:02:13.492Z,-6.97
2017-01-21T07:03:13.468Z,-6.98
2017-01-21T07:04:13.449Z,-6.94
2017-01-21T07:05:13.433Z,-7.01
2017-01-21T07:06:13.406Z,-6.95
2017-01-21T07:07:13.384Z,-6.95
2017-01-21T07:08:13.361Z,-7.05
2017-01-21T07:09:13.340Z,-7.13
2017-01-21T07:10:13.319Z,-7.06
2017-01-21T07:11:13.299Z,-7.02
2017-01-21T07:12:13.279Z,-7.16
2017-01-21T07:13:13.254Z,-7.2
2017-01-21T07:14:13.233Z,-7.17
2017-01-21T07:15:13.212Z,-7.33
2017-01-21T07:16:13.191Z,-7.34
2017-01-21T07:17:13.179Z,-7.27
2017-01-21T07:18:13.151Z,-7.27
2017-01-21T07:19:13.282Z,-7.3
2017-01-21T07:20:13.108Z,-7.26
2017-01-21T07:21:13.084Z,-7.27
2017-01-21T07:22:13.089Z,-7.19
2017-01-21T07:23:13.042Z,-7.13
2017-01-21T07:24:13.049Z,-7.15
2017-01-21T07:25:12.998Z,-7.24
2017-01-21T07:26:12.979Z,-7.13
2017-01-21T07:27:12.956Z,-7.17
2017-01-21T07:28:12.936Z,-7.22
2017-01-21T07:29:12.914Z,-7.33
2017-01-21T07:30:12.893Z,-7.26
2017-01-21T07:31:12.870Z,-7.28
2017-01-21T07:32:12.854Z,-7.27
2017-01-21T07:33:12.831Z,-7.28
2017-01-21T07:34:12.806Z,-7.31
2017-01-21T07:35:12.787Z,-7.12
2017-01-21T07:36:13.160Z,-7.22
2017-01-21T07:37:12.768Z,-7.22
2017-01-21T07:38:12.721Z,-7.07
2017-01-21T07:39:12.701Z,-7.09
2017-01-21T07:40:12.678Z,-7.09
2017-01-21T07:41:12.683Z,-7.01
2017-01-21T07:42:12.637Z,-7.01
2017-01-21T07:43:12.615Z,-7.09
2017-01-21T07:44:12.594Z,-7.12
2017-01-21T07:45:12.570Z,-6.98
2017-01-21T07:46:12.551Z,-7.01
2017-01-21T07:47:12.535Z,-7.06
2017-01-21T07:48:12.904Z,-7.06
2017-01-21T07:49:12.488Z,-6.99
2017-01-21T07:50:12.465Z,-7.01
2017-01-21T07:51:12.443Z,-6.94
2017-01-21T07:52:12.424Z,-6.95
2017-01-21T07:53:12.405Z,-6.92
2017-01-21T07:54:12.381Z,-7.02
2017-01-21T07:55:12.363Z,-6.94
2017-01-21T07:56:12.338Z,-6.95
2017-01-21T07:57:12.319Z,-6.88
2017-01-21T07:58:12.303Z,-6.92
2017-01-21T07:59:12.275Z,-6.89
2017-01-21T08:00:12.252Z,-6.83
2017-01-21T08:01:12.233Z,-6.84
2017-01-21T08:02:12.211Z,-6.76
2017-01-21T08:03:12.191Z,-6.68
2017-01-21T08:04:12.170Z,-6.65
2017-01-21T08:05:12.147Z,-6.7
2017-01-21T08:06:12.124Z,-6.65
2017-01-21T08:07:12.107Z,-6.58
2017-01-21T08:08:12.083Z,-6.55
2017-01-21T08:09:12.062Z,-6.59
2017-01-21T08:10:12.042Z,-6.58
2017-01-21T08:11:12.437Z,-6.58
2017-01-21T08:12:11.999Z,-6.54
2017-01-21T08:13:11.979Z,-6.49
2017-01-21T08:14:11.953Z,-6.48
2017-01-21T08:15:11.934Z,-6.41
2017-01-21T08:16:11.916Z,-6.34
2017-01-21T08:17:11.890Z,-6.37
2017-01-21T08:18:11.875Z,-6.4
2017-01-21T08:19:11.848Z,-6.36
2017-01-21T08:20:11.830Z,-6.31
2017-01-21T08:21:11.806Z,-6.36
2017-01-21T08:22:11.790Z,-6.31
2017-01-21T08:23:11.764Z,-6.28
2017-01-21T08:24:11.748Z,-6.22
2017-01-21T08:25:11.725Z,-6.23
2017-01-21T08:26:12.101Z,-6.15
2017-01-21T08:27:11.684Z,-6.16
2017-01-21T08:28:11.661Z,-6.08
2017-01-21T08:29:11.637Z,-6.05
2017-01-21T08:30:11.619Z,-6.02
2017-01-21T08:31:11.605Z,-5.94
2017-01-21T08:32:11.574Z,-5.87
2017-01-21T08:33:11.568Z,-5.86
2017-01-21T08:34:11.537Z,-5.89
2017-01-21T08:35:11.522Z,-5.76
2017-01-21T08:36:11.495Z,-5.7
2017-01-21T08:37:11.472Z,-5.76
2017-01-21T08:38:11.488Z,-5.58
2017-01-21T08:39:11.459Z,-5.6
2017-01-21T08:40:11.414Z,-5.52
2017-01-21T08:41:11.391Z,-5.44
2017-01-21T08:42:11.765Z,-5.45
2017-01-21T08:43:11.350Z,-5.38
2017-01-21T08:44:11.326Z,-5.38
2017-01-21T08:45:11.307Z,-5.4
2017-01-21T08:46:11.285Z,-5.3
2017-01-21T08:47:11.266Z,-5.31
2017-01-21T08:48:11.246Z,-5.2
2017-01-21T08:49:11.226Z,-5.2
2017-01-21T08:50:11.204Z,-5.11
2017-01-21T08:51:11.192Z,-5.14
2017-01-21T08:52:11.160Z,-5.1
2017-01-21T08:53:11.146Z,-5.02
2017-01-21T08:54:11.122Z,-4.98
2017-01-21T08:55:11.104Z,-4.94
2017-01-21T08:56:11.082Z,-4.84
2017-01-21T08:57:11.060Z,-4.82
2017-01-21T08:58:11.052Z,-4.86
2017-01-21T08:59:11.019Z,-4.75
2017-01-21T09:00:11.001Z,-4.75
2017-01-21T09:01:10.984Z,-4.76
2017-01-21T09:02:10.958Z,-4.72
2017-01-21T09:03:10.940Z,-4.73
2017-01-21T09:04:10.917Z,-4.72
2017-01-21T09:05:10.900Z,-4.65
2017-01-21T09:06:10.882Z,-4.66
2017-01-21T09:07:10.857Z,-4.55
2017-01-21T09:08:10.837Z,-4.59
2017-01-21T09:09:10.824Z,-4.53
2017-01-21T09:10:10.802Z,-4.45
2017-01-21T09:11:10.782Z,-4.5
2017-01-21T09:12:10.761Z,-4.37
2017-01-21T09:13:10.740Z,-4.27
2017-01-21T09:14:10.723Z,-4.26
2017-01-21T09:15:10.701Z,-4.25
2017-01-21T09:16:10.678Z,-4.26
2017-01-21T09:17:10.661Z,-4.27
2017-01-21T09:18:10.641Z,-4.27
2017-01-21T09:19:10.622Z,-4.19
2017-01-21T09:20:10.597Z,-4.12
2017-01-21T09:21:10.586Z,-4.18
2017-01-21T09:22:10.562Z,-4.12
2017-01-21T09:23:10.544Z,-4.08
2017-01-21T09:24:10.522Z,-4.14
2017-01-21T09:25:10.506Z,-3.98
2017-01-21T09:26:10.486Z,-4.01
2017-01-21T09:27:10.467Z,-3.91
2017-01-21T09:28:10.448Z,-3.87
2017-01-21T09:29:10.427Z,-3.83
2017-01-21T09:30:10.413Z,-3.79
2017-01-21T09:31:10.389Z,-3.69
2017-01-21T09:32:10.365Z,-3.69
2017-01-21T09:33:10.347Z,-3.51
2017-01-21T09:34:10.326Z,-3.63
2017-01-21T09:35:10.317Z,-3.47
2017-01-21T09:36:10.289Z,-3.51
2017-01-21T09:37:10.267Z,-3.53
2017-01-21T09:38:10.248Z,-3.51
2017-01-21T09:39:10.230Z,-3.43
2017-01-21T09:40:10.210Z,-3.43
2017-01-21T09:41:10.191Z,-3.38
2017-01-21T09:42:10.171Z,-3.39
2017-01-21T09:43:10.151Z,-3.42
2017-01-21T09:44:10.136Z,-3.4
2017-01-21T09:45:10.115Z,-3.36
2017-01-21T09:46:10.096Z,-3.3
2017-01-21T09:47:10.071Z,-3.28
2017-01-21T09:48:10.056Z,-3.21
2017-01-21T09:49:10.043Z,-3.14
2017-01-21T09:50:10.020Z,-3.11
2017-01-21T09:51:09.996Z,-2.99
2017-01-21T09:52:09.978Z,-3.07
2017-01-21T09:53:09.961Z,-2.94
2017-01-21T09:54:09.941Z,-3.01
2017-01-21T09:55:09.920Z,-2.86
2017-01-21T09:56:09.904Z,-2.96
2017-01-21T09:57:09.882Z,-2.86
2017-01-21T09:58:09.864Z,-2.9
2017-01-21T09:59:09.990Z,-2.9
2017-01-21T10:00:09.824Z,-2.91
2017-01-21T10:01:09.808Z,-2.94
2017-01-21T10:02:09.790Z,-2.99
2017-01-21T10:03:09.774Z,-2.85
2017-01-21T10:04:09.750Z,-2.86
2017-01-21T10:05:09.731Z,-2.9
2017-01-21T10:06:09.715Z,-3
2017-01-21T10:07:10.091Z,-2.91
2017-01-21T10:08:09.673Z,-2.9
2017-01-21T10:09:09.652Z,-2.9
2017-01-21T10:10:09.637Z,-2.86
2017-01-21T10:11:09.616Z,-2.88
2017-01-21T10:12:09.595Z,-2.9
2017-01-21T10:13:09.578Z,-2.83
2017-01-21T10:14:09.571Z,-2.76
2017-01-21T10:15:09.539Z,-2.75
2017-01-21T10:16:09.521Z,-2.79
2017-01-21T10:17:09.506Z,-2.73
2017-01-21T10:18:09.488Z,-2.75
2017-01-21T10:19:09.463Z,-2.7
2017-01-21T10:20:09.446Z,-2.7
2017-01-21T10:21:09.427Z,-2.75
2017-01-21T10:22:09.407Z,-2.73
2017-01-21T10:23:09.389Z,-2.65
2017-01-21T10:24:09.371Z,-2.61
2017-01-21T10:25:09.352Z,-2.64
2017-01-21T10:26:09.334Z,-2.53
2017-01-21T10:27:09.314Z,-2.67
2017-01-21T10:28:09.298Z,-2.49
2017-01-21T10:29:09.284Z,-2.58
2017-01-21T10:30:09.258Z,-2.46
2017-01-21T10:31:09.246Z,-2.49
2017-01-21T10:32:09.221Z,-2.49
2017-01-21T10:33:09.206Z,-2.32
2017-01-21T10:34:09.186Z,-2.36
2017-01-21T10:35:09.167Z,-2.24
2017-01-21T10:36:09.148Z,-2.25
2017-01-21T10:37:09.132Z,-2.1
2017-01-21T10:38:09.114Z,-1.92
2017-01-21T10:39:09.094Z,-1.79
2017-01-21T10:40:09.073Z,-1.7
2017-01-21T10:41:09.082Z,-1.61
2017-01-21T10:42:09.045Z,-1.55
2017-01-21T10:43:09.020Z,-1.49
2017-01-21T10:44:09.005Z,-1.38
2017-01-21T10:45:08.986Z,-1.31
2017-01-21T10:46:08.967Z,-1.17
2017-01-21T10:47:08.951Z,-1.25
2017-01-21T10:48:08.930Z,-1.13
2017-01-21T10:49:08.913Z,-1.03
2017-01-21T10:50:08.901Z,-0.99
2017-01-21T10:51:08.875Z,-0.91
2017-01-21T10:52:08.860Z,-0.87
2017-01-21T10:53:08.840Z,-0.87
2017-01-21T10:54:08.822Z,-0.84
2017-01-21T10:55:09.199Z,-0.82
2017-01-21T10:56:08.783Z,-0.76
2017-01-21T10:57:08.772Z,-0.69
2017-01-21T10:58:08.759Z,-0.62
2017-01-21T10:59:08.733Z,-0.64
2017-01-21T11:00:08.717Z,-0.69
2017-01-21T11:01:08.700Z,-0.61
2017-01-21T11:02:08.683Z,-0.56
2017-01-21T11:03:08.666Z,-0.55
2017-01-21T11:04:08.650Z,-0.49
2017-01-21T11:05:08.632Z,-0.52
2017-01-21T11:06:08.618Z,-0.45
2017-01-21T11:07:08.602Z,-0.45
2017-01-21T11:08:08.580Z,-0.45
2017-01-21T11:09:08.564Z,-0.54
2017-01-21T11:10:08.569Z,-0.54
2017-01-21T11:11:08.527Z,-0.41
2017-01-21T11:12:08.508Z,-0.37
2017-01-21T11:13:08.490Z,-0.4
2017-01-21T11:14:08.475Z,-0.31
2017-01-21T11:15:08.458Z,-0.31
2017-01-21T11:16:08.442Z,-0.2
2017-01-21T11:17:08.426Z,-0.23
2017-01-21T11:18:08.404Z,-0.23
2017-01-21T11:19:08.392Z,-0.16
2017-01-21T11:20:08.370Z,-0.07
2017-01-21T11:21:08.355Z,-0.13
2017-01-21T11:22:08.340Z,-0.04
2017-01-21T11:23:08.322Z,0.01
2017-01-21T11:24:08.697Z,0.16
2017-01-21T11:25:08.287Z,0.1
2017-01-21T11:26:08.269Z,0.2
2017-01-21T11:27:08.256Z,0.16
2017-01-21T11:28:08.249Z,0.31
2017-01-21T11:29:08.218Z,0.38
2017-01-21T11:30:08.201Z,0.37
2017-01-21T11:31:08.186Z,0.48
2017-01-21T11:32:08.566Z,0.45
2017-01-21T11:33:08.423Z,0.57
2017-01-21T11:34:08.532Z,0.63
2017-01-21T11:35:08.115Z,0.66
2017-01-21T11:36:08.125Z,0.82
2017-01-21T11:37:08.084Z,0.85
2017-01-21T11:38:08.069Z,0.82
2017-01-21T11:39:08.050Z,0.85
2017-01-21T11:40:08.032Z,0.93
2017-01-21T11:41:08.018Z,0.96
2017-01-21T11:42:07.998Z,1
2017-01-21T11:43:07.987Z,1.04
2017-01-21T11:44:07.970Z,1.21
2017-01-21T11:45:07.956Z,1.24
2017-01-21T11:46:07.934Z,1.26
2017-01-21T11:47:07.921Z,1.29
2017-01-21T11:48:07.905Z,1.33
2017-01-21T11:49:07.887Z,1.38
2017-01-21T11:50:07.874Z,1.36
2017-01-21T11:51:07.854Z,1.33
2017-01-21T11:52:07.840Z,1.36
2017-01-21T11:53:07.826Z,1.36
2017-01-21T11:54:07.806Z,1.36
2017-01-21T11:55:07.795Z,1.51
2017-01-21T11:56:07.771Z,1.4
2017-01-21T11:57:07.760Z,1.48
2017-01-21T11:58:07.740Z,1.54
2017-01-21T11:59:07.732Z,1.51
2017-01-21T12:00:07.713Z,1.51
2017-01-21T12:01:07.692Z,1.5
2017-01-21T12:02:07.673Z,1.53
2017-01-21T12:03:07.659Z,1.57
2017-01-21T12:04:07.644Z,1.58
2017-01-21T12:05:07.628Z,1.64
2017-01-21T12:06:07.616Z,1.65
2017-01-21T12:07:07.600Z,1.6
2017-01-21T12:08:07.586Z,1.71
2017-01-21T12:09:07.566Z,1.58
2017-01-21T12:10:07.550Z,1.66
2017-01-21T12:11:07.532Z,1.75
2017-01-21T12:12:07.517Z,1.6
2017-01-21T12:13:07.499Z,1.68
2017-01-21T12:14:07.484Z,1.69
2017-01-21T12:15:07.472Z,1.65
2017-01-21T12:16:07.455Z,1.65
2017-01-21T12:17:07.442Z,1.65
2017-01-21T12:18:07.422Z,1.75
2017-01-21T12:19:07.406Z,1.69
2017-01-21T12:20:07.394Z,1.71
2017-01-21T12:21:07.373Z,1.72
2017-01-21T12:22:07.359Z,1.69
2017-01-21T12:23:07.346Z,1.76
2017-01-21T12:24:07.327Z,1.69
2017-01-21T12:25:07.309Z,1.69
2017-01-21T12:26:07.295Z,1.6
2017-01-21T12:27:07.283Z,1.61
2017-01-21T12:28:07.263Z,1.66
2017-01-21T12:29:07.249Z,1.65
2017-01-21T12:30:07.241Z,1.61
2017-01-21T12:31:07.220Z,1.58
2017-01-21T12:32:07.198Z,1.6
2017-01-21T12:33:07.584Z,1.57
2017-01-21T12:34:07.181Z,1.54
2017-01-21T12:35:07.154Z,1.51
2017-01-21T12:36:07.138Z,1.44
2017-01-21T12:37:07.120Z,1.58
2017-01-21T12:38:07.111Z,1.53
2017-01-21T12:39:07.088Z,1.56
2017-01-21T12:40:07.875Z,1.5
2017-01-21T12:41:07.077Z,1.46
2017-01-21T12:42:07.045Z,1.46
2017-01-21T12:43:07.028Z,1.36
2017-01-21T12:44:07.011Z,1.46
2017-01-21T12:45:06.998Z,1.44
2017-01-21T12:46:06.984Z,1.47
2017-01-21T12:47:06.965Z,1.39
2017-01-21T12:48:06.947Z,1.38
2017-01-21T12:49:06.933Z,1.42
2017-01-21T12:50:06.917Z,1.48
2017-01-21T12:51:06.903Z,1.36
2017-01-21T12:52:06.884Z,1.48
2017-01-21T12:53:06.873Z,1.38
2017-01-21T12:54:06.856Z,1.33
2017-01-21T12:55:06.838Z,1.35
2017-01-21T12:56:06.821Z,1.35
2017-01-21T12:57:06.807Z,1.39
2017-01-21T12:58:06.794Z,1.4
2017-01-21T12:59:06.772Z,1.3